Time;durP1;ratioP1;P1;durP2;ratioP2;P2;SDS_P1;SDS_P2;PMS_P1;PMS_P2;Temp;Humidity;BMP_temperature;BMP_pressure;BME280_temperature;BME280_humidity;BME280_pressure;Samples;Min_cycle;Max_cycle;Signal;HPM_P1;HPM_P2
2023/11/26 00:02:00;;;;;;;;;;;;;;;0.30;100.00;95260.74;110153;1241;71236;-68
2023/11/26 00:04:30;;;;;;;;;;;;;;;0.31;100.00;95256.55;110193;1246;69119;-69
2023/11/26 00:07:00;;;;;;;;;;;;;;;0.31;100.00;95252.29;110137;1251;68784;-69
2023/11/26 00:09:30;;;;;;;;;;;;;;;0.31;100.00;95246.28;110159;1251;59760;-69
2023/11/26 00:11:59;;;;;;;;;;;;;;;0.30;100.00;95239.97;110185;1244;59717;-69
2023/11/26 00:14:29;;;;;;;;;;;;;;;0.29;100.00;95238.70;110180;1245;70686;-69
2023/11/26 00:16:58;;;;;;;;;;;;;;;0.28;100.00;95238.27;110152;1242;68481;-69
2023/11/26 00:19:29;;;;;;;;;;;;;;;0.27;100.00;95240.52;110107;1245;68451;-69
2023/11/26 00:21:59;;;;;;;;;;;;;;;0.25;100.00;95233.98;110149;1245;59725;-69
2023/11/26 00:24:28;;;;;;;;;;;;;;;0.22;100.00;95230.23;110195;1245;59688;-68
2023/11/26 00:26:58;;;;;;;;;;;;;;;0.21;100.00;95224.81;110161;1242;71450;-69
2023/11/26 00:29:28;;;;;;;;;;;;;;;0.20;100.00;95226.27;110139;1244;69232;-69
2023/11/26 00:31:59;;;;;;;;;;;;;;;0.18;100.00;95230.86;110150;1244;69442;-69
2023/11/26 00:34:29;;;;;;;;;;;;;;;0.16;100.00;95227.95;110185;1244;59694;-69
2023/11/26 00:36:59;;;;;;;;;;;;;;;0.14;100.00;95227.05;110183;1252;59659;-68
2023/11/26 00:39:30;;;;;;;;;;;;;;;0.13;100.00;95231.69;110165;1241;71428;-69
2023/11/26 00:42:03;;;;;;;;;;;;;;;0.13;100.00;95229.11;109835;1241;69484;-67
2023/11/26 00:44:35;;;;;;;;;;;;;;;0.12;100.00;95220.65;110121;1243;69311;-68
2023/11/26 00:47:06;;;;;;;;;;;;;;;0.12;100.00;95218.77;110128;1241;59722;-68
2023/11/26 00:49:35;;;;;;;;;;;;;;;0.12;100.00;95223.06;110145;1245;59678;-68
2023/11/26 00:52:06;;;;;;;;;;;;;;;0.11;100.00;95225.48;110129;1245;70689;-68
2023/11/26 00:54:36;;;;;;;;;;;;;;;0.12;100.00;95226.33;110151;1245;69321;-68
2023/11/26 00:57:07;;;;;;;;;;;;;;;0.11;100.00;95221.76;110155;1241;69246;-68
2023/11/26 00:59:38;;;;;;;;;;;;;;;0.11;100.00;95223.11;109898;1241;60130;-68
2023/11/26 01:02:09;;;;;;;;;;;;;;;0.11;100.00;95221.56;110161;1244;59761;-69
2023/11/26 01:04:40;;;;;;;;;;;;;;;0.11;100.00;95231.86;110183;1244;71595;-69
2023/11/26 01:07:12;;;;;;;;;;;;;;;0.10;100.00;95241.00;110196;1242;68502;-68
2023/11/26 01:09:42;;;;;;;;;;;;;;;0.09;100.00;95237.31;110199;1241;69129;-68
2023/11/26 01:12:14;;;;;;;;;;;;;;;0.09;100.00;95235.59;110233;1243;59681;-69
2023/11/26 01:14:47;;;;;;;;;;;;;;;0.09;100.00;95234.56;110195;1244;59621;-69
2023/11/26 01:17:22;;;;;;;;;;;;;;;0.07;100.00;95232.09;110102;1241;70741;-69
2023/11/26 01:19:53;;;;;;;;;;;;;;;0.07;100.00;95227.68;109809;1241;68502;-69
2023/11/26 01:22:26;;;;;;;;;;;;;;;0.06;100.00;95224.81;110010;1243;68530;-68
2023/11/26 01:24:56;;;;;;;;;;;;;;;0.05;100.00;95218.23;110159;1245;59689;-68
2023/11/26 01:27:26;;;;;;;;;;;;;;;0.04;100.00;95214.54;110143;1245;59681;-68
2023/11/26 01:29:58;;;;;;;;;;;;;;;0.02;100.00;95215.84;110267;1241;70623;-69
2023/11/26 01:32:31;;;;;;;;;;;;;;;0.02;100.00;95218.77;110160;1245;69151;-69
2023/11/26 01:35:03;;;;;;;;;;;;;;;-0.00;100.00;95220.07;110165;1245;69376;-70
2023/11/26 01:37:38;;;;;;;;;;;;;;;-0.01;100.00;95223.05;110187;1245;59703;-69
2023/11/26 01:40:11;;;;;;;;;;;;;;;-0.03;100.00;95221.14;110182;1241;59668;-69
2023/11/26 01:42:44;;;;;;;;;;;;;;;-0.05;100.00;95219.01;110177;1241;70362;-68
2023/11/26 01:45:15;;;;;;;;;;;;;;;-0.06;100.00;95223.33;110151;1243;69370;-68
2023/11/26 01:47:46;;;;;;;;;;;;;;;-0.07;100.00;95228.73;110201;1241;69360;-68
2023/11/26 01:50:22;;;;;;;;;;;;;;;-0.07;100.00;95232.35;110136;1243;59694;-68
2023/11/26 01:52:57;;;;;;;;;;;;;;;-0.09;100.00;95237.10;110191;1246;59747;-68
2023/11/26 01:55:29;;;;;;;;;;;;;;;-0.11;100.00;95241.81;110219;1243;71403;-68
2023/11/26 01:58:02;;;;;;;;;;;;;;;-0.10;100.00;95246.39;110208;1244;69224;-68
2023/11/26 02:00:34;;;;;;;;;;;;;;;-0.11;100.00;95254.36;109991;1245;68518;-68
2023/11/26 02:03:07;;;;;;;;;;;;;;;-0.10;100.00;95257.84;110222;1244;59756;-69
2023/11/26 02:05:41;;;;;;;;;;;;;;;-0.10;100.00;95260.41;110225;1245;59691;-69
2023/11/26 02:08:16;;;;;;;;;;;;;;;-0.11;100.00;95258.11;110200;1244;71211;-70
2023/11/26 02:10:55;;;;;;;;;;;;;;;-0.11;100.00;95258.59;110209;1245;68519;-69
2023/11/26 02:13:29;;;;;;;;;;;;;;;-0.11;100.00;95261.35;110146;1245;69110;-69
2023/11/26 02:16:01;;;;;;;;;;;;;;;-0.11;100.00;95257.64;110178;1241;59730;-68
2023/11/26 02:18:35;;;;;;;;;;;;;;;-0.12;100.00;95259.03;109866;1244;60150;-69
2023/11/26 02:21:11;;;;;;;;;;;;;;;-0.13;100.00;95261.66;109857;1241;70593;-69
2023/11/26 02:23:45;;;;;;;;;;;;;;;-0.13;100.00;95256.02;110151;1245;69843;-69
2023/11/26 02:26:18;;;;;;;;;;;;;;;-0.14;100.00;95249.58;110149;1241;69351;-69
2023/11/26 02:28:50;;;;;;;;;;;;;;;-0.15;100.00;95240.91;110076;1245;60098;-69
2023/11/26 02:31:21;;;;;;;;;;;;;;;-0.16;100.00;95237.36;110178;1244;59678;-69
2023/11/26 02:33:56;;;;;;;;;;;;;;;-0.17;100.00;95236.07;109931;1245;71544;-69
2023/11/26 02:36:27;;;;;;;;;;;;;;;-0.17;100.00;95235.77;110193;1241;68405;-69
2023/11/26 02:39:01;;;;;;;;;;;;;;;-0.18;100.00;95232.23;110099;1245;69457;-68
2023/11/26 02:41:35;;;;;;;;;;;;;;;-0.19;100.00;95237.39;110176;1246;59700;-68
2023/11/26 02:44:05;;;;;;;;;;;;;;;-0.19;100.00;95239.97;110251;1245;59673;-69
2023/11/26 02:46:39;;;;;;;;;;;;;;;-0.24;100.00;95241.48;110246;1242;70807;-69
2023/11/26 02:49:10;;;;;;;;;;;;;;;-0.25;100.00;95241.52;110208;1245;69147;-69
2023/11/26 02:51:42;;;;;;;;;;;;;;;-0.27;100.00;95247.48;110181;1245;68689;-68
2023/11/26 02:54:16;;;;;;;;;;;;;;;-0.31;100.00;95254.75;109981;1241;59759;-69
2023/11/26 02:56:47;;;;;;;;;;;;;;;-0.32;100.00;95260.67;110223;1245;59637;-69
2023/11/26 02:59:20;;;;;;;;;;;;;;;-0.33;100.00;95268.24;110214;1243;71387;-68
2023/11/26 03:01:57;;;;;;;;;;;;;;;-0.34;100.00;95269.33;110236;1243;69110;-68
2023/11/26 03:04:31;;;;;;;;;;;;;;;-0.35;100.00;95270.95;110271;1245;69306;-69
2023/11/26 03:07:07;;;;;;;;;;;;;;;-0.35;100.00;95263.46;110225;1244;59702;-69
2023/11/26 03:12:56;;;;;;;;;;;;;;;-0.39;100.00;95261.45;110232;1241;59757;-69
2023/11/26 03:15:22;;;;;;;;;;;;;;;-0.43;100.00;95266.30;110624;1242;69116;-68
2023/11/26 03:17:57;;;;;;;;;;;;;;;-0.44;100.00;95264.73;110455;1242;69252;-68
2023/11/26 03:20:31;;;;;;;;;;;;;;;-0.46;100.00;95269.77;110266;1248;59747;-69
2023/11/26 03:23:06;;;;;;;;;;;;;;;-0.45;100.00;95267.01;110216;1245;59618;-69
2023/11/26 03:25:40;;;;;;;;;;;;;;;-0.48;100.00;95274.50;110175;1244;70603;-69
2023/11/26 03:28:13;;;;;;;;;;;;;;;-0.51;100.00;95273.36;110192;1243;69297;-69
2023/11/26 03:30:46;;;;;;;;;;;;;;;-0.53;100.00;95278.23;110408;1245;68455;-70
2023/11/26 03:33:17;;;;;;;;;;;;;;;-0.54;100.00;95279.14;110286;1244;59688;-69
2023/11/26 03:35:50;;;;;;;;;;;;;;;-0.55;100.00;95281.29;110239;1245;59638;-69
2023/11/26 03:38:22;;;;;;;;;;;;;;;-0.57;100.00;95280.35;110184;1242;71407;-69
2023/11/26 03:40:54;;;;;;;;;;;;;;;-0.57;100.00;95281.23;110191;1243;67624;-69
2023/11/26 03:43:24;;;;;;;;;;;;;;;-0.58;100.00;95285.91;110002;1245;69193;-69
2023/11/26 03:45:58;;;;;;;;;;;;;;;-0.60;100.00;95286.38;110178;1241;59753;-69
2023/11/26 03:48:33;;;;;;;;;;;;;;;-0.62;100.00;95284.80;110231;1241;59669;-69
2023/11/26 03:51:15;;;;;;;;;;;;;;;-0.61;100.00;95285.60;110189;1241;71420;-69
2023/11/26 03:53:48;;;;;;;;;;;;;;;-0.62;100.00;95283.94;110147;1241;69081;-69
2023/11/26 03:56:20;;;;;;;;;;;;;;;-0.62;100.00;95284.95;110173;1245;68424;-69
2023/11/26 03:58:55;;;;;;;;;;;;;;;-0.64;100.00;95286.46;110193;1243;59697;-69
2023/11/26 04:01:28;;;;;;;;;;;;;;;-0.65;100.00;95290.61;110196;1244;60020;-69
2023/11/26 04:04:01;;;;;;;;;;;;;;;-0.67;100.00;95295.67;110157;1245;70491;-69
2023/11/26 04:06:33;;;;;;;;;;;;;;;-0.67;100.00;95295.54;110173;1245;69240;-69
2023/11/26 04:09:07;;;;;;;;;;;;;;;-0.67;100.00;95293.02;110166;1241;69512;-69
2023/11/26 04:11:45;;;;;;;;;;;;;;;-0.67;100.00;95290.08;110126;1241;59744;-69
2023/11/26 04:14:30;;;;;;;;;;;;;;;-0.69;100.00;95292.92;110185;1245;59702;-69
2023/11/26 04:17:01;;;;;;;;;;;;;;;-0.69;100.00;95291.55;110200;1245;71459;-69
2023/11/26 04:19:33;;;;;;;;;;;;;;;-0.69;100.00;95291.38;110170;1246;69610;-69
2023/11/26 04:22:07;;;;;;;;;;;;;;;-0.70;100.00;95292.48;110125;1242;69694;-69
2023/11/26 04:24:40;;;;;;;;;;;;;;;-0.73;100.00;95296.98;110086;1243;59640;-69
2023/11/26 04:27:10;;;;;;;;;;;;;;;-0.73;100.00;95294.39;110153;1245;59631;-69
2023/11/26 04:29:42;;;;;;;;;;;;;;;-0.75;100.00;95294.02;110133;1243;71476;-67
2023/11/26 04:32:12;;;;;;;;;;;;;;;-0.78;100.00;95287.88;110164;1244;69138;-68
2023/11/26 04:34:44;;;;;;;;;;;;;;;-0.81;100.00;95291.95;110185;1242;69091;-69
2023/11/26 04:37:18;;;;;;;;;;;;;;;-0.83;100.00;95288.20;110165;1248;59737;-69
2023/11/26 04:39:50;;;;;;;;;;;;;;;-0.86;100.00;95297.73;110180;1246;59715;-68
2023/11/26 04:42:21;;;;;;;;;;;;;;;-0.88;100.00;95295.14;110189;1245;71307;-69
2023/11/26 04:44:51;;;;;;;;;;;;;;;-0.91;100.00;95297.52;110148;1241;69224;-69
2023/11/26 04:47:22;;;;;;;;;;;;;;;-0.96;100.00;95300.39;110113;1248;68414;-69
2023/11/26 04:49:58;;;;;;;;;;;;;;;-0.97;100.00;95298.60;110172;1245;59668;-69
2023/11/26 04:52:28;;;;;;;;;;;;;;;-1.01;100.00;95297.13;110161;1242;59742;-69
2023/11/26 04:54:59;;;;;;;;;;;;;;;-1.04;100.00;95296.13;110142;1245;70733;-68
2023/11/26 04:57:30;;;;;;;;;;;;;;;-1.08;100.00;95299.40;110169;1243;69108;-68
2023/11/26 05:00:00;;;;;;;;;;;;;;;-1.12;100.00;95304.58;110138;1243;69093;-69
2023/11/26 05:02:32;;;;;;;;;;;;;;;-1.13;100.00;95302.61;110130;1245;59815;-69
2023/11/26 05:05:03;;;;;;;;;;;;;;;-1.15;100.00;95309.73;110145;1244;59669;-69
2023/11/26 05:07:33;;;;;;;;;;;;;;;-1.16;100.00;95312.20;110161;1241;71312;-70
2023/11/26 05:10:06;;;;;;;;;;;;;;;-1.19;100.00;95309.81;110133;1245;68180;-69
2023/11/26 05:12:37;;;;;;;;;;;;;;;-1.24;100.00;95315.05;110131;1246;69292;-69
2023/11/26 05:15:07;;;;;;;;;;;;;;;-1.25;100.00;95315.15;109861;1252;59688;-69
2023/11/26 05:17:39;;;;;;;;;;;;;;;-1.29;100.00;95319.11;110157;1246;59743;-69
2023/11/26 05:20:13;;;;;;;;;;;;;;;-1.32;100.00;95320.52;110221;1243;70664;-69
2023/11/26 05:22:44;;;;;;;;;;;;;;;-1.36;100.00;95322.45;110156;1248;69230;-69
2023/11/26 05:25:15;;;;;;;;;;;;;;;-1.38;100.00;95329.40;110100;1244;67830;-68
2023/11/26 05:27:49;;;;;;;;;;;;;;;-1.41;100.00;95335.05;110152;1246;59748;-69
2023/11/26 05:30:20;;;;;;;;;;;;;;;-1.44;100.00;95337.45;110154;1245;59750;-68
2023/11/26 05:32:50;;;;;;;;;;;;;;;-1.47;100.00;95339.16;110155;1244;70795;-68
2023/11/26 05:35:20;;;;;;;;;;;;;;;-1.50;100.00;95344.31;110248;1241;67374;-68
2023/11/26 05:37:50;;;;;;;;;;;;;;;-1.51;100.00;95350.17;110166;1242;69121;-69
2023/11/26 05:40:20;;;;;;;;;;;;;;;-1.52;100.00;95354.18;110194;1245;59675;-68
2023/11/26 05:42:50;;;;;;;;;;;;;;;-1.56;100.00;95357.76;110138;1244;59678;-69
2023/11/26 05:45:20;;;;;;;;;;;;;;;-1.57;100.00;95361.25;110169;1246;71206;-68
2023/11/26 05:47:50;;;;;;;;;;;;;;;-1.63;100.00;95366.55;110181;1246;69067;-68
2023/11/26 05:50:20;;;;;;;;;;;;;;;-1.64;100.00;95373.41;110167;1243;69621;-68
2023/11/26 05:52:50;;;;;;;;;;;;;;;-1.65;100.00;95376.74;110176;1245;59701;-68
2023/11/26 05:55:21;;;;;;;;;;;;;;;-1.68;100.00;95380.99;110267;1245;60153;-68
2023/11/26 05:57:51;;;;;;;;;;;;;;;-1.74;100.00;95387.35;110173;1249;71013;-68
2023/11/26 06:00:20;;;;;;;;;;;;;;;-1.74;100.00;95393.86;110144;1242;67814;-68
2023/11/26 06:02:51;;;;;;;;;;;;;;;-1.75;100.00;95395.94;110174;1246;69380;-70
2023/11/26 06:05:20;;;;;;;;;;;;;;;-1.75;100.00;95403.11;110229;1244;59735;-69
2023/11/26 06:07:50;;;;;;;;;;;;;;;-1.80;100.00;95405.27;110309;1240;59651;-70
2023/11/26 06:10:20;;;;;;;;;;;;;;;-1.78;100.00;95409.74;110306;1242;71404;-69
2023/11/26 06:12:50;;;;;;;;;;;;;;;-1.77;100.00;95412.82;110279;1242;69228;-67
2023/11/26 06:15:19;;;;;;;;;;;;;;;-1.80;100.00;95411.05;110240;1242;68723;-68
2023/11/26 06:17:49;;;;;;;;;;;;;;;-1.83;100.00;95413.45;110238;1241;59703;-68
2023/11/26 06:20:18;;;;;;;;;;;;;;;-1.82;100.00;95414.05;110105;1245;59638;-68
2023/11/26 06:22:48;;;;;;;;;;;;;;;-1.80;100.00;95414.83;110227;1242;71446;-68
2023/11/26 06:25:17;;;;;;;;;;;;;;;-1.80;100.00;95418.58;110255;1243;69230;-68
2023/11/26 06:27:47;;;;;;;;;;;;;;;-1.81;100.00;95421.89;110221;1242;69318;-68
2023/11/26 06:30:17;;;;;;;;;;;;;;;-1.82;100.00;95427.77;110189;1242;59744;-69
2023/11/26 06:32:47;;;;;;;;;;;;;;;-1.91;100.00;95432.38;110237;1241;59737;-68
2023/11/26 06:35:17;;;;;;;;;;;;;;;-1.95;100.00;95435.63;110212;1242;71380;-68
2023/11/26 06:37:46;;;;;;;;;;;;;;;-1.88;100.00;95435.41;110181;1240;69275;-68
2023/11/26 06:40:16;;;;;;;;;;;;;;;-1.91;100.00;95432.66;110195;1240;69330;-69
2023/11/26 06:42:45;;;;;;;;;;;;;;;-1.89;100.00;95438.39;110121;1245;59708;-69
2023/11/26 06:45:15;;;;;;;;;;;;;;;-1.87;100.00;95441.52;110215;1242;59761;-69
2023/11/26 06:47:45;;;;;;;;;;;;;;;-1.87;100.00;95444.94;110170;1242;71380;-69
2023/11/26 06:50:15;;;;;;;;;;;;;;;-1.83;100.00;95444.38;110213;1242;68413;-69
2023/11/26 06:52:43;;;;;;;;;;;;;;;-1.86;100.00;95449.14;110198;1243;69283;-69
2023/11/26 06:55:14;;;;;;;;;;;;;;;-1.83;100.00;95449.13;110193;1241;59644;-69
2023/11/26 06:57:43;;;;;;;;;;;;;;;-1.81;100.00;95457.92;110220;1240;59724;-69
2023/11/26 07:00:12;;;;;;;;;;;;;;;-1.80;100.00;95460.60;110194;1245;71450;-69
2023/11/26 07:02:41;;;;;;;;;;;;;;;-1.78;100.00;95462.72;110192;1245;68496;-69
2023/11/26 07:05:12;;;;;;;;;;;;;;;-1.78;100.00;95465.26;110228;1242;68314;-69
2023/11/26 07:07:42;;;;;;;;;;;;;;;-1.93;100.00;95472.76;110183;1242;59706;-68
2023/11/26 07:10:11;;;;;;;;;;;;;;;-1.84;100.00;95474.64;110227;1240;59741;-69
2023/11/26 07:12:40;;;;;;;;;;;;;;;-1.82;100.00;95480.70;110186;1242;71462;-69
2023/11/26 07:15:10;;;;;;;;;;;;;;;-1.77;100.00;95486.55;110224;1242;69833;-69
2023/11/26 07:17:39;;;;;;;;;;;;;;;-1.80;100.00;95488.45;110173;1242;68764;-69
2023/11/26 07:20:09;;;;;;;;;;;;;;;-1.77;100.00;95492.02;110189;1242;59667;-69
2023/11/26 07:22:38;;;;;;;;;;;;;;;-1.82;100.00;95497.27;110199;1242;59697;-68
2023/11/26 07:25:08;;;;;;;;;;;;;;;-1.77;100.00;95492.86;110188;1249;70758;-69
2023/11/26 07:27:38;;;;;;;;;;;;;;;-1.83;100.00;95488.93;110215;1242;69232;-69
2023/11/26 07:30:10;;;;;;;;;;;;;;;-1.93;100.00;95491.03;110202;1240;69851;-69
2023/11/26 07:32:44;;;;;;;;;;;;;;;-1.83;100.00;95492.34;110254;1243;59728;-69
2023/11/26 07:35:13;;;;;;;;;;;;;;;-1.81;100.00;95498.55;110200;1242;59634;-68
2023/11/26 07:37:42;;;;;;;;;;;;;;;-1.77;100.00;95502.62;110157;1242;70453;-68
2023/11/26 07:40:14;;;;;;;;;;;;;;;-1.73;100.00;95504.31;110245;1242;68499;-69
2023/11/26 07:42:44;;;;;;;;;;;;;;;-1.80;100.00;95503.63;110165;1241;69278;-68
2023/11/26 07:45:13;;;;;;;;;;;;;;;-1.89;100.00;95504.30;110204;1240;59743;-68
2023/11/26 07:47:42;;;;;;;;;;;;;;;-1.70;100.00;95503.40;110191;1242;59688;-68
2023/11/26 07:50:11;;;;;;;;;;;;;;;-1.71;100.00;95507.77;110208;1241;70650;-68
2023/11/26 07:52:40;;;;;;;;;;;;;;;-1.64;100.00;95508.90;110220;1243;69440;-68
2023/11/26 07:55:09;;;;;;;;;;;;;;;-1.64;100.00;95513.86;110170;1242;69154;-67
2023/11/26 07:57:40;;;;;;;;;;;;;;;-1.58;100.00;95516.29;110228;1241;59674;-68
2023/11/26 08:00:11;;;;;;;;;;;;;;;-1.47;100.00;95517.70;110219;1248;59670;-67
2023/11/26 08:02:40;;;;;;;;;;;;;;;-1.37;99.84;95517.81;110261;1242;70830;-68
2023/11/26 08:05:18;;;;;;;;;;;;;;;-1.37;99.30;95517.17;110200;1242;68741;-68
2023/11/26 08:07:47;;;;;;;;;;;;;;;-1.37;98.60;95514.76;110253;1242;69296;-69
2023/11/26 08:10:22;;;;;;;;;;;;;;;-1.23;98.51;95524.06;110230;1242;59677;-68
2023/11/26 08:12:52;;;;;;;;;;;;;;;-1.14;98.86;95523.20;110194;1242;59693;-69
2023/11/26 08:15:23;;;;;;;;;;;;;;;-1.04;97.48;95526.56;110186;1242;71363;-68
2023/11/26 08:17:55;;;;;;;;;;;;;;;-1.10;95.41;95534.45;110203;1242;68335;-67
2023/11/26 08:20:24;;;;;;;;;;;;;;;-1.01;95.26;95533.92;110186;1243;69867;-67
2023/11/26 08:22:53;;;;;;;;;;;;;;;-0.88;95.67;95538.86;110198;1241;59742;-67
2023/11/26 08:25:28;;;;;;;;;;;;;;;-0.74;96.40;95542.63;110212;1242;59742;-69
2023/11/26 08:27:58;;;;;;;;;;;;;;;-0.80;92.44;95545.75;110227;1242;70659;-69
2023/11/26 08:30:30;;;;;;;;;;;;;;;-0.65;93.97;95551.05;110200;1242;68588;-69
2023/11/26 08:33:02;;;;;;;;;;;;;;;-0.54;92.88;95552.27;110244;1242;69176;-70
2023/11/26 08:35:31;;;;;;;;;;;;;;;-0.41;93.46;95550.80;110222;1242;60106;-68
2023/11/26 08:38:01;;;;;;;;;;;;;;;-0.50;89.40;95547.56;110293;1241;59662;-68
2023/11/26 08:40:34;;;;;;;;;;;;;;;-0.27;91.80;95552.58;110213;1241;71967;-68
2023/11/26 08:43:04;;;;;;;;;;;;;;;-0.18;91.35;95562.11;110215;1241;68949;-69
2023/11/26 08:45:33;;;;;;;;;;;;;;;-0.24;88.47;95560.23;110151;1250;69313;-69
2023/11/26 08:48:02;;;;;;;;;;;;;;;-0.20;88.52;95563.26;110208;1242;59699;-69
2023/11/26 08:50:33;;;;;;;;;;;;;;;-0.07;88.69;95561.96;110160;1243;59665;-69
2023/11/26 08:53:05;;;;;;;;;;;;;;;-0.07;85.63;95560.10;110200;1241;70777;-69
2023/11/26 08:55:34;;;;;;;;;;;;;;;-0.12;85.54;95557.69;110172;1242;69418;-69
2023/11/26 08:58:03;;;;;;;;;;;;;;;-0.03;85.43;95559.48;110168;1242;68704;-69
2023/11/26 09:00:32;;;;;;;;;;;;;;;-0.00;84.05;95564.84;110191;1242;59722;-68
2023/11/26 09:03:01;;;;;;;;;;;;;;;0.18;85.78;95564.58;110174;1241;59672;-68
2023/11/26 09:05:30;;;;;;;;;;;;;;;0.22;84.46;95567.73;110234;1242;71394;-68
2023/11/26 09:07:59;;;;;;;;;;;;;;;0.18;83.54;95566.77;110216;1242;69247;-68
2023/11/26 09:10:28;;;;;;;;;;;;;;;0.40;84.71;95567.33;110211;1241;69323;-69
2023/11/26 09:12:58;;;;;;;;;;;;;;;0.52;84.59;95571.92;110250;1242;59740;-68
2023/11/26 09:15:28;;;;;;;;;;;;;;;0.63;83.76;95568.11;110267;1242;59630;-68
2023/11/26 09:17:57;;;;;;;;;;;;;;;0.60;80.67;95570.55;110193;1242;72005;-69
2023/11/26 09:20:28;;;;;;;;;;;;;;;0.54;80.34;95564.77;110257;1242;68729;-69
2023/11/26 09:22:57;;;;;;;;;;;;;;;0.45;78.09;95569.75;110233;1242;69123;-68
2023/11/26 09:25:27;;;;;;;;;;;;;;;0.57;79.20;95569.02;110227;1242;59721;-69
2023/11/26 09:27:56;;;;;;;;;;;;;;;0.70;78.90;95573.03;110231;1240;59745;-68
2023/11/26 09:30:24;;;;;;;;;;;;;;;0.89;80.83;95576.27;110244;1241;70654;-69
2023/11/26 09:32:54;;;;;;;;;;;;;;;1.06;78.84;95569.52;110275;1242;69493;-69
2023/11/26 09:35:24;;;;;;;;;;;;;;;1.03;74.71;95569.21;110236;1242;69164;-69
2023/11/26 09:37:52;;;;;;;;;;;;;;;1.26;76.60;95567.37;110256;1242;59671;-69
2023/11/26 09:40:22;;;;;;;;;;;;;;;1.21;72.99;95572.50;110206;1242;59670;-69
2023/11/26 09:42:52;;;;;;;;;;;;;;;1.33;73.83;95569.15;110239;1247;70656;-69
2023/11/26 09:45:21;;;;;;;;;;;;;;;1.61;74.73;95563.00;110261;1242;68486;-68
2023/11/26 09:47:49;;;;;;;;;;;;;;;1.59;71.13;95568.83;110041;1244;69301;-68
2023/11/26 09:50:18;;;;;;;;;;;;;;;1.57;71.65;95565.51;110245;1250;59764;-68
2023/11/26 09:52:47;;;;;;;;;;;;;;;1.79;70.70;95564.67;110230;1243;59699;-68
2023/11/26 09:55:16;;;;;;;;;;;;;;;1.93;71.63;95568.06;110238;1242;71718;-68
2023/11/26 09:57:45;;;;;;;;;;;;;;;1.81;68.93;95572.45;110213;1241;68715;-68
2023/11/26 10:00:16;;;;;;;;;;;;;;;2.06;70.62;95573.20;110102;1241;69458;-68
2023/11/26 10:02:45;;;;;;;;;;;;;;;2.10;69.00;95572.94;110225;1248;59688;-68
2023/11/26 10:05:26;;;;;;;;;;;;;;;1.97;67.44;95575.32;110271;1244;59697;-68
2023/11/26 10:07:55;;;;;;;;;;;;;;;2.19;68.66;95580.02;110239;1240;71373;-69
2023/11/26 10:10:24;;;;;;;;;;;;;;;2.24;67.06;95579.14;110193;1242;68603;-69
2023/11/26 10:13:00;;;;;;;;;;;;;;;2.31;67.16;95584.06;110185;1245;69614;-69
2023/11/26 10:15:30;;;;;;;;;;;;;;;2.35;66.02;95578.06;110241;1242;59740;-68
2023/11/26 10:18:09;;;;;;;;;;;;;;;2.36;65.89;95577.45;110264;1241;59714;-68
2023/11/26 10:20:45;;;;;;;;;;;;;;;2.28;66.12;95581.11;110253;1241;71957;-68
2023/11/26 10:23:24;;;;;;;;;;;;;;;2.21;67.20;95582.31;110269;1242;68514;-68
2023/11/26 10:25:52;;;;;;;;;;;;;;;2.06;66.28;95584.19;110279;1242;68469;-68
2023/11/26 10:28:21;;;;;;;;;;;;;;;1.92;66.36;95581.36;110226;1243;59741;-68
2023/11/26 10:30:50;;;;;;;;;;;;;;;1.82;66.29;95585.11;110221;1242;59679;-68
2023/11/26 10:33:20;;;;;;;;;;;;;;;1.70;66.04;95582.48;110214;1242;69731;-68
2023/11/26 10:35:54;;;;;;;;;;;;;;;1.72;66.32;95584.26;110246;1242;67584;-68
2023/11/26 10:38:34;;;;;;;;;;;;;;;1.85;67.58;95590.44;110205;1243;68814;-68
2023/11/26 10:41:04;;;;;;;;;;;;;;;2.02;67.07;95587.90;110233;1243;59726;-68
2023/11/26 10:43:35;;;;;;;;;;;;;;;2.16;65.82;95585.44;110239;1242;59688;-68
2023/11/26 10:46:16;;;;;;;;;;;;;;;2.30;64.57;95582.38;110230;1241;71609;-69
2023/11/26 10:48:50;;;;;;;;;;;;;;;2.42;64.53;95584.84;110222;1242;69219;-68
2023/11/26 10:51:20;;;;;;;;;;;;;;;2.72;64.78;95589.91;110201;1243;69317;-68
2023/11/26 10:54:00;;;;;;;;;;;;;;;2.99;63.57;95589.91;110191;1242;59692;-69
2023/11/26 10:56:37;;;;;;;;;;;;;;;3.35;62.18;95588.54;110336;1242;59687;-69
2023/11/26 10:59:09;;;;;;;;;;;;;;;3.63;61.07;95586.31;109813;1242;507860;-69
2023/11/26 11:01:40;;;;;;;;;;;;;;;3.95;61.37;95590.77;110367;1242;69478;-70
2023/11/26 11:04:13;;;;;;;;;;;;;;;4.06;59.81;95591.51;110421;1242;69755;-69
2023/11/26 11:06:45;;;;;;;;;;;;;;;4.06;58.58;95593.77;110193;1243;59736;-69
2023/11/26 11:09:22;;;;;;;;;;;;;;;4.38;59.00;95594.94;110267;1245;59643;-68
2023/11/26 11:11:59;;;;;;;;;;;;;;;4.56;56.79;95596.64;110242;1242;71505;-68
2023/11/26 11:14:30;;;;;;;;;;;;;;;4.74;56.11;95598.84;110234;1242;68655;-68
2023/11/26 11:16:59;;;;;;;;;;;;;;;4.65;55.36;95603.20;110211;1242;69701;-68
2023/11/26 11:19:48;;;;;;;;;;;;;;;4.66;56.06;95603.27;110239;1241;59728;-67
2023/11/26 11:22:17;;;;;;;;;;;;;;;4.55;55.48;95607.25;110230;1241;59672;-67
2023/11/26 11:24:46;;;;;;;;;;;;;;;4.66;56.99;95606.09;110205;1246;71953;-67
2023/11/26 11:27:14;;;;;;;;;;;;;;;4.78;54.71;95610.52;110223;1241;68757;-67
2023/11/26 11:29:43;;;;;;;;;;;;;;;4.52;52.66;95608.20;110192;1249;69853;-68
2023/11/26 11:32:14;;;;;;;;;;;;;;;4.19;54.02;95610.86;110237;1242;59722;-69
2023/11/26 11:34:42;;;;;;;;;;;;;;;4.02;54.66;95612.10;110269;1242;59731;-69
2023/11/26 11:37:11;;;;;;;;;;;;;;;3.70;54.08;95620.20;110241;1240;70650;-68
2023/11/26 11:39:42;;;;;;;;;;;;;;;3.58;54.61;95624.74;110291;1242;69323;-68
2023/11/26 11:42:13;;;;;;;;;;;;;;;3.43;54.88;95630.81;110253;1242;69851;-68
2023/11/26 11:44:43;;;;;;;;;;;;;;;3.12;55.53;95633.38;110203;1241;59772;-68
2023/11/26 11:47:12;;;;;;;;;;;;;;;2.73;55.69;95634.91;110219;1242;59727;-69
2023/11/26 11:49:53;;;;;;;;;;;;;;;2.49;56.52;95633.66;110244;1243;71256;-69
2023/11/26 11:52:22;;;;;;;;;;;;;;;2.21;57.44;95644.02;110202;1242;69478;-68
2023/11/26 11:55:23;;;;;;;;;;;;;;;2.32;58.34;95646.39;110220;1240;68398;-69
2023/11/26 11:57:53;;;;;;;;;;;;;;;2.30;58.57;95648.02;109894;1247;59672;-69
2023/11/26 12:00:22;;;;;;;;;;;;;;;2.38;59.34;95654.72;110136;1244;60161;-67
2023/11/26 12:02:52;;;;;;;;;;;;;;;2.31;60.05;95655.41;110172;1241;71433;-68
2023/11/26 12:05:25;;;;;;;;;;;;;;;2.37;60.38;95659.10;110136;1244;69234;-68
2023/11/26 12:07:57;;;;;;;;;;;;;;;2.32;60.51;95659.95;110187;1245;69211;-68
2023/11/26 12:10:28;;;;;;;;;;;;;;;2.38;60.33;95665.20;110193;1244;59763;-67
2023/11/26 12:13:00;;;;;;;;;;;;;;;2.30;60.08;95667.84;110227;1242;59708;-67
2023/11/26 12:15:30;;;;;;;;;;;;;;;2.33;60.82;95675.20;110187;1251;71362;-67
2023/11/26 12:18:00;;;;;;;;;;;;;;;2.23;60.54;95682.23;110222;1241;69352;-67
2023/11/26 12:20:29;;;;;;;;;;;;;;;2.17;60.05;95685.73;110151;1244;69524;-66
2023/11/26 12:22:59;;;;;;;;;;;;;;;1.99;60.51;95678.33;110142;1244;59694;-68
2023/11/26 12:25:28;;;;;;;;;;;;;;;1.91;61.40;95690.89;110221;1241;59760;-68
2023/11/26 12:28:02;;;;;;;;;;;;;;;1.83;61.69;95700.66;110208;1243;71393;-68
2023/11/26 12:30:33;;;;;;;;;;;;;;;1.56;61.87;95700.16;110178;1243;70203;-68
2023/11/26 12:33:03;;;;;;;;;;;;;;;1.46;62.45;95706.11;110208;1241;69503;-66
2023/11/26 12:35:33;;;;;;;;;;;;;;;1.40;63.42;95702.25;110202;1241;59658;-67
2023/11/26 12:38:06;;;;;;;;;;;;;;;1.62;63.71;95719.36;110153;1241;59686;-67
2023/11/26 12:40:36;;;;;;;;;;;;;;;1.76;62.40;95704.70;110191;1241;71402;-67
2023/11/26 12:43:05;;;;;;;;;;;;;;;1.65;62.88;95717.80;110133;1244;69842;-67
2023/11/26 12:45:34;;;;;;;;;;;;;;;1.65;63.13;95721.08;110156;1247;68940;-67
2023/11/26 12:48:03;;;;;;;;;;;;;;;1.54;64.21;95725.35;110156;1243;59756;-67
2023/11/26 12:50:42;;;;;;;;;;;;;;;1.59;65.33;95729.50;110152;1243;59688;-68
2023/11/26 12:53:12;;;;;;;;;;;;;;;1.65;66.30;95729.27;110162;1243;71921;-67
2023/11/26 12:55:45;;;;;;;;;;;;;;;1.53;68.23;95736.23;110147;1244;68338;-67
2023/11/26 12:58:18;;;;;;;;;;;;;;;1.46;69.23;95742.69;110178;1244;69871;-67
2023/11/26 13:00:47;;;;;;;;;;;;;;;1.15;71.06;95745.65;110191;1242;59762;-67